createdAt,value
2023-05-13T00:00:38.534Z,11.51
2023-05-13T00:03:06.654Z,11.58
2023-05-13T00:05:34.586Z,11.45
2023-05-13T00:08:07.051Z,11.70
2023-05-13T00:10:35.084Z,11.49
2023-05-13T00:13:04.854Z,11.80
2023-05-13T00:15:33.063Z,11.82
2023-05-13T00:18:01.234Z,11.81
2023-05-13T00:20:29.432Z,11.80
2023-05-13T00:22:57.204Z,11.80
2023-05-13T00:25:25.343Z,11.77
2023-05-13T00:27:53.566Z,11.78
2023-05-13T00:30:23.254Z,11.76
2023-05-13T00:32:51.886Z,11.71
2023-05-13T00:35:20.209Z,11.73
2023-05-13T00:37:48.011Z,11.72
2023-05-13T00:40:21.256Z,11.69
2023-05-13T00:42:49.294Z,11.72
2023-05-13T00:45:17.376Z,11.69
2023-05-13T00:47:46.813Z,11.71
2023-05-13T00:50:15.570Z,11.70
2023-05-13T00:52:44.453Z,11.67
2023-05-13T00:55:12.868Z,11.65
2023-05-13T00:57:41.218Z,11.64
2023-05-13T01:00:10.483Z,11.64
2023-05-13T01:02:42.998Z,11.63
2023-05-13T01:05:19.499Z,11.66
2023-05-13T01:07:53.668Z,11.67
2023-05-13T01:10:26.854Z,11.69
2023-05-13T01:12:58.182Z,11.74
2023-05-13T01:15:27.716Z,11.75
2023-05-13T01:17:57.723Z,11.82
2023-05-13T01:20:28.500Z,11.84
2023-05-13T01:22:57.728Z,11.87
2023-05-13T01:25:26.156Z,11.90
2023-05-13T01:27:54.436Z,11.78
2023-05-13T01:30:23.870Z,11.93
2023-05-13T01:32:53.012Z,11.90
2023-05-13T01:35:21.872Z,11.93
2023-05-13T01:37:50.962Z,11.94
2023-05-13T01:40:31.920Z,11.97
2023-05-13T01:43:01.351Z,11.92
2023-05-13T01:45:30.087Z,11.99
2023-05-13T01:47:57.959Z,11.99
2023-05-13T01:50:26.528Z,12.02
2023-05-13T01:52:54.613Z,12.05
2023-05-13T01:55:23.815Z,12.07
2023-05-13T01:57:51.625Z,12.07
2023-05-13T02:00:20.420Z,12.09
2023-05-13T02:02:48.531Z,12.10
2023-05-13T02:05:16.809Z,12.11
2023-05-13T02:07:45.074Z,12.11
2023-05-13T02:10:13.200Z,12.13
2023-05-13T02:12:42.366Z,12.14
2023-05-13T02:15:11.338Z,12.16
2023-05-13T02:17:39.392Z,12.13
2023-05-13T02:20:09.328Z,12.14
2023-05-13T02:22:37.527Z,12.09
2023-05-13T02:25:05.721Z,12.08
2023-05-13T02:27:33.468Z,12.08
2023-05-13T02:30:03.044Z,12.09
2023-05-13T02:32:30.891Z,12.07
2023-05-13T02:34:58.895Z,12.07
2023-05-13T02:37:26.752Z,12.04
2023-05-13T02:39:54.642Z,11.97
2023-05-13T02:42:22.459Z,12.00
2023-05-13T02:44:50.374Z,11.96
2023-05-13T02:47:19.561Z,11.96
2023-05-13T02:49:47.327Z,11.98
2023-05-13T02:52:15.104Z,11.95
2023-05-13T02:54:42.860Z,11.94
2023-05-13T02:57:10.675Z,11.91
2023-05-13T02:59:38.416Z,11.88
2023-05-13T03:02:06.707Z,11.83
2023-05-13T03:04:36.010Z,11.84
2023-05-13T03:07:03.818Z,11.81
2023-05-13T03:09:35.062Z,11.84
2023-05-13T03:12:02.918Z,11.84
2023-05-13T03:14:30.782Z,11.86
2023-05-13T03:16:58.618Z,11.85
2023-05-13T03:19:26.466Z,11.81
2023-05-13T03:21:55.856Z,11.87
2023-05-13T03:24:23.689Z,11.88
2023-05-13T03:26:51.473Z,11.90
2023-05-13T03:29:19.366Z,11.88
2023-05-13T03:31:47.351Z,11.89
2023-05-13T03:34:15.161Z,11.90
2023-05-13T03:36:42.964Z,11.89
2023-05-13T03:39:12.123Z,11.90
2023-05-13T03:41:39.906Z,11.94
2023-05-13T03:44:07.707Z,11.93
2023-05-13T03:46:35.493Z,11.95
2023-05-13T03:49:03.319Z,11.95
2023-05-13T03:51:31.203Z,11.97
2023-05-13T03:53:58.972Z,11.98
2023-05-13T03:56:28.109Z,12.00
2023-05-13T03:58:56.090Z,12.02
2023-05-13T04:01:23.834Z,12.03
2023-05-13T04:03:51.598Z,12.06
2023-05-13T04:06:19.409Z,12.04
2023-05-13T04:08:47.384Z,12.06
2023-05-13T04:11:15.136Z,12.07
2023-05-13T04:13:45.983Z,12.07
2023-05-13T04:16:14.478Z,12.13
2023-05-13T04:18:42.585Z,12.14
2023-05-13T04:21:11.443Z,12.13
2023-05-13T04:23:39.189Z,12.14
2023-05-13T04:26:07.072Z,12.19
2023-05-13T04:28:36.227Z,12.23
2023-05-13T04:31:05.634Z,12.23
2023-05-13T04:33:33.678Z,12.24
2023-05-13T04:36:01.522Z,12.29
2023-05-13T04:38:29.312Z,12.33
2023-05-13T04:40:57.087Z,12.34
2023-05-13T04:43:24.852Z,12.31
2023-05-13T04:45:52.741Z,12.34
2023-05-13T04:48:21.946Z,12.37
2023-05-13T04:50:52.585Z,12.37
2023-05-13T04:53:20.852Z,12.40
2023-05-13T04:55:49.728Z,12.39
2023-05-13T04:58:17.848Z,12.40
2023-05-13T05:00:45.857Z,12.46
2023-05-13T05:03:13.847Z,12.49
2023-05-13T05:05:42.993Z,12.47
2023-05-13T05:08:10.804Z,12.50
2023-05-13T05:10:38.612Z,12.42
2023-05-13T05:13:06.560Z,12.53
2023-05-13T05:15:34.324Z,12.56
2023-05-13T05:18:02.165Z,12.61
2023-05-13T05:20:29.963Z,12.68
2023-05-13T05:22:59.765Z,12.72
2023-05-13T05:25:27.674Z,12.78
2023-05-13T05:27:55.617Z,12.85
2023-05-13T05:30:23.832Z,12.92
2023-05-13T05:32:51.894Z,13.00
2023-05-13T05:35:20.398Z,13.03
2023-05-13T05:37:48.330Z,13.11
2023-05-13T05:40:17.476Z,13.13
2023-05-13T05:42:45.231Z,13.15
2023-05-13T05:45:13.088Z,13.10
2023-05-13T05:47:40.908Z,13.11
2023-05-13T05:50:09.453Z,13.08
2023-05-13T05:52:37.219Z,13.06
2023-05-13T05:55:07.162Z,13.03
2023-05-13T05:57:36.345Z,13.03
2023-05-13T06:00:04.571Z,13.03
2023-05-13T06:02:32.543Z,13.08
2023-05-13T06:05:00.716Z,13.09
2023-05-13T06:07:28.477Z,13.13
2023-05-13T06:09:56.582Z,13.19
2023-05-13T06:12:24.386Z,13.20
2023-05-13T06:14:53.535Z,13.30
2023-05-13T06:17:21.281Z,13.40
2023-05-13T06:19:49.072Z,13.50
2023-05-13T06:22:16.845Z,13.64
2023-05-13T06:24:44.930Z,13.80
2023-05-13T06:27:12.836Z,13.91
2023-05-13T06:29:40.714Z,14.04
2023-05-13T06:32:10.051Z,14.22
2023-05-13T06:34:40.304Z,14.34
2023-05-13T06:37:08.603Z,14.48
2023-05-13T06:39:36.398Z,14.55
2023-05-13T06:42:04.314Z,14.73
2023-05-13T06:44:32.165Z,14.90
2023-05-13T06:47:00.065Z,14.85
2023-05-13T06:49:29.296Z,14.88
2023-05-13T06:52:02.869Z,14.89
2023-05-13T06:54:32.543Z,14.96
2023-05-13T06:57:00.803Z,14.92
2023-05-13T06:59:30.274Z,14.89
2023-05-13T07:01:58.105Z,14.98
2023-05-13T07:04:26.107Z,15.09
2023-05-13T07:06:55.333Z,15.17
2023-05-13T07:09:23.172Z,15.28
2023-05-13T07:11:51.017Z,15.28
2023-05-13T07:14:18.852Z,15.44
2023-05-13T07:16:46.723Z,15.42
2023-05-13T07:19:14.581Z,15.60
2023-05-13T07:21:42.475Z,15.68
2023-05-13T07:24:11.761Z,15.81
2023-05-13T07:26:39.778Z,15.85
2023-05-13T07:29:07.592Z,15.92
2023-05-13T07:31:35.689Z,16.11
2023-05-13T07:34:03.545Z,16.23
2023-05-13T07:36:31.799Z,16.47
2023-05-13T07:38:59.685Z,16.51
2023-05-13T07:41:28.899Z,16.69
2023-05-13T07:43:56.642Z,16.75
2023-05-13T07:46:24.439Z,16.58
2023-05-13T07:48:52.238Z,16.41
2023-05-13T07:51:20.098Z,16.50
2023-05-13T07:53:48.067Z,16.43
2023-05-13T07:56:15.930Z,16.37
2023-05-13T07:58:46.095Z,16.43
2023-05-13T08:01:13.908Z,16.60
2023-05-13T08:03:41.827Z,16.59
2023-05-13T08:06:09.714Z,16.60
2023-05-13T08:08:37.513Z,16.43
2023-05-13T08:11:05.317Z,16.55
2023-05-13T08:13:33.102Z,16.77
2023-05-13T08:16:03.415Z,16.75
2023-05-13T08:18:31.588Z,16.72
2023-05-13T08:20:59.476Z,16.53
2023-05-13T08:23:36.827Z,17.04
2023-05-13T08:26:11.645Z,17.28
2023-05-13T08:28:39.470Z,16.96
2023-05-13T08:31:08.811Z,17.04
2023-05-13T08:33:36.656Z,16.82
2023-05-13T08:36:04.799Z,16.87
2023-05-13T08:38:33.521Z,17.32
2023-05-13T08:41:01.432Z,17.76
2023-05-13T08:43:30.604Z,17.67
2023-05-13T08:46:04.848Z,17.63
2023-05-13T08:48:35.185Z,17.57
2023-05-13T08:51:03.080Z,17.62
2023-05-13T08:53:31.474Z,17.90
2023-05-13T08:56:00.127Z,17.83
2023-05-13T08:58:28.107Z,17.52
2023-05-13T09:00:56.296Z,17.50
2023-05-13T09:03:24.227Z,16.89
2023-05-13T09:05:53.354Z,16.92
2023-05-13T09:08:21.185Z,16.92
2023-05-13T09:10:49.261Z,17.04
2023-05-13T09:13:18.839Z,17.00
2023-05-13T09:15:47.057Z,17.11
2023-05-13T09:18:18.662Z,17.25
2023-05-13T09:20:46.879Z,17.40
2023-05-13T09:23:16.642Z,17.19
2023-05-13T09:25:44.503Z,17.03
2023-05-13T09:28:15.412Z,17.21
2023-05-13T09:30:45.661Z,17.07
2023-05-13T09:33:15.271Z,17.09
2023-05-13T09:35:44.222Z,17.05
2023-05-13T09:38:17.845Z,17.15
2023-05-13T09:40:52.868Z,17.25
2023-05-13T09:43:21.979Z,17.73
2023-05-13T09:45:54.022Z,18.37
2023-05-13T09:48:22.502Z,18.74
2023-05-13T09:50:51.326Z,19.02
2023-05-13T09:53:21.190Z,18.86
2023-05-13T09:55:49.834Z,18.49
2023-05-13T09:58:19.017Z,18.82
2023-05-13T10:00:47.681Z,18.99
2023-05-13T10:03:16.393Z,19.42
2023-05-13T10:05:44.483Z,19.57
2023-05-13T10:08:13.597Z,19.88
2023-05-13T10:10:45.774Z,19.82
2023-05-13T10:13:16.028Z,19.98
2023-05-13T10:15:49.963Z,20.27
2023-05-13T10:18:18.047Z,20.14
2023-05-13T10:20:46.024Z,20.38
2023-05-13T10:23:13.920Z,20.74
2023-05-13T10:25:43.846Z,20.78
2023-05-13T10:28:11.755Z,20.60
2023-05-13T10:30:39.481Z,20.73
2023-05-13T10:33:07.430Z,20.95
2023-05-13T10:35:39.827Z,21.08
2023-05-13T10:38:11.761Z,20.98
2023-05-13T10:41:02.422Z,20.89
2023-05-13T10:43:31.010Z,20.60
2023-05-13T10:46:00.151Z,20.52
2023-05-13T10:48:28.356Z,20.50
2023-05-13T10:50:57.212Z,20.82
2023-05-13T10:53:26.453Z,21.28
2023-05-13T10:55:55.616Z,21.08
2023-05-13T10:58:30.073Z,21.10
2023-05-13T11:01:19.122Z,21.83
2023-05-13T11:03:54.308Z,21.66
2023-05-13T11:06:23.742Z,21.53
2023-05-13T11:08:55.063Z,21.38
2023-05-13T11:11:33.017Z,21.37
2023-05-13T11:14:09.306Z,21.64
2023-05-13T11:16:37.991Z,21.70
2023-05-13T11:19:10.612Z,22.45
2023-05-13T11:21:41.186Z,22.91
2023-05-13T11:24:09.479Z,22.09
2023-05-13T11:26:46.333Z,21.74
2023-05-13T11:29:16.034Z,21.75
2023-05-13T11:31:48.861Z,21.49
2023-05-13T11:34:17.743Z,21.72
2023-05-13T11:36:48.010Z,22.14
2023-05-13T11:39:17.156Z,22.10
2023-05-13T11:41:47.002Z,21.78
2023-05-13T11:44:18.337Z,22.27
2023-05-13T11:46:53.643Z,22.84
2023-05-13T11:49:38.834Z,22.35
2023-05-13T11:52:08.037Z,21.49
2023-05-13T11:54:43.404Z,21.08
2023-05-13T11:57:25.045Z,21.33
2023-05-13T11:59:56.164Z,21.72
2023-05-13T12:02:25.659Z,21.90
2023-05-13T12:04:53.752Z,22.04
2023-05-13T12:07:23.419Z,21.69
2023-05-13T12:09:51.293Z,21.18
2023-05-13T12:12:20.207Z,20.62
2023-05-13T12:14:50.258Z,20.54
2023-05-13T12:17:20.561Z,20.37
2023-05-13T12:20:11.916Z,20.63
2023-05-13T12:22:52.356Z,20.52
2023-05-13T12:25:42.939Z,20.19
2023-05-13T12:28:13.164Z,20.11
2023-05-13T12:30:42.334Z,19.96
2023-05-13T12:33:16.421Z,19.99
2023-05-13T12:35:44.891Z,20.13
2023-05-13T12:38:17.378Z,20.18
2023-05-13T12:40:45.602Z,20.13
2023-05-13T12:43:13.841Z,20.37
2023-05-13T12:45:44.743Z,20.41
2023-05-13T12:48:13.544Z,20.52
2023-05-13T12:50:43.824Z,20.39
2023-05-13T12:53:11.652Z,20.76
2023-05-13T12:55:40.254Z,20.81
2023-05-13T12:58:10.956Z,21.27
2023-05-13T13:00:39.026Z,21.94
2023-05-13T13:03:08.001Z,22.69
2023-05-13T13:05:36.333Z,22.69
2023-05-13T13:08:06.380Z,21.79
2023-05-13T13:10:34.259Z,21.90
2023-05-13T13:13:02.077Z,21.27
2023-05-13T13:15:29.960Z,21.24
2023-05-13T13:17:57.764Z,21.39
2023-05-13T13:20:25.839Z,20.86
2023-05-13T13:22:54.198Z,20.73
2023-05-13T13:25:23.659Z,20.39
2023-05-13T13:27:51.563Z,20.17
2023-05-13T13:30:19.305Z,20.06
2023-05-13T13:32:47.102Z,19.73
2023-05-13T13:35:14.884Z,19.73
2023-05-13T13:37:42.661Z,18.93
2023-05-13T13:40:11.670Z,18.83
2023-05-13T13:42:44.574Z,18.59
2023-05-13T13:45:13.589Z,18.42
2023-05-13T13:47:41.501Z,18.17
2023-05-13T13:50:10.931Z,18.19
2023-05-13T13:52:38.777Z,18.17
2023-05-13T13:55:07.865Z,18.09
2023-05-13T13:57:40.115Z,17.84
2023-05-13T14:00:09.224Z,17.97
2023-05-13T14:02:37.087Z,18.07
2023-05-13T14:05:05.442Z,18.19
2023-05-13T14:07:33.266Z,18.30
2023-05-13T14:10:01.641Z,18.35
2023-05-13T14:12:29.620Z,18.55
2023-05-13T14:14:59.794Z,18.79
2023-05-13T14:17:27.556Z,18.97
2023-05-13T14:19:55.785Z,19.09
2023-05-13T14:22:24.152Z,19.19
2023-05-13T14:24:52.744Z,19.15
2023-05-13T14:27:20.797Z,19.30
2023-05-13T14:29:48.967Z,19.40
2023-05-13T14:32:18.203Z,19.60
2023-05-13T14:34:46.255Z,19.59
2023-05-13T14:37:14.036Z,19.39
2023-05-13T14:39:41.797Z,19.00
2023-05-13T14:42:11.569Z,19.03
2023-05-13T14:44:41.442Z,19.06
2023-05-13T14:47:09.643Z,19.08
2023-05-13T14:49:38.811Z,19.03
2023-05-13T14:52:06.865Z,19.01
2023-05-13T14:54:35.822Z,19.14
2023-05-13T14:57:03.878Z,19.14
2023-05-13T14:59:31.859Z,19.24
2023-05-13T15:01:59.648Z,19.06
2023-05-13T15:04:27.936Z,19.03
2023-05-13T15:06:57.300Z,18.98
2023-05-13T15:09:25.016Z,19.03
2023-05-13T15:11:52.793Z,19.02
2023-05-13T15:14:21.615Z,18.96
2023-05-13T15:16:49.470Z,18.89
2023-05-13T15:19:17.279Z,19.22
2023-05-13T15:21:45.125Z,19.71
2023-05-13T15:24:14.213Z,20.17
2023-05-13T15:26:41.966Z,20.17
2023-05-13T15:29:09.799Z,20.58
2023-05-13T15:31:37.555Z,20.83
2023-05-13T15:34:05.322Z,20.83
2023-05-13T15:36:34.669Z,20.91
2023-05-13T15:39:02.813Z,20.95
2023-05-13T15:41:31.969Z,20.46
2023-05-13T15:43:59.754Z,20.32
2023-05-13T15:46:27.682Z,20.04
2023-05-13T15:48:55.529Z,20.21
2023-05-13T15:51:23.289Z,20.04
2023-05-13T15:53:51.055Z,20.20
2023-05-13T15:56:18.786Z,20.31
2023-05-13T15:58:47.995Z,20.48
2023-05-13T16:01:15.772Z,20.78
2023-05-13T16:03:43.591Z,20.79
2023-05-13T16:06:11.426Z,20.95
2023-05-13T16:08:39.210Z,20.99
2023-05-13T16:11:07.021Z,20.90
2023-05-13T16:13:34.782Z,20.69
2023-05-13T16:16:03.916Z,20.93
2023-05-13T16:18:31.742Z,21.05
2023-05-13T16:20:59.556Z,21.20
2023-05-13T16:23:27.355Z,21.28
2023-05-13T16:25:55.211Z,21.53
2023-05-13T16:28:22.937Z,21.66
2023-05-13T16:30:51.388Z,21.85
2023-05-13T16:33:20.509Z,21.95
2023-05-13T16:35:48.268Z,21.77
2023-05-13T16:38:16.013Z,21.56
2023-05-13T16:40:43.879Z,21.26
2023-05-13T16:43:11.660Z,20.94
2023-05-13T16:45:39.770Z,20.73
2023-05-13T16:48:07.794Z,20.84
2023-05-13T16:50:37.234Z,20.68
2023-05-13T16:53:04.976Z,20.38
2023-05-13T16:55:32.929Z,20.58
2023-05-13T16:58:01.502Z,20.26
2023-05-13T17:00:30.247Z,19.86
2023-05-13T17:02:58.157Z,19.45
2023-05-13T17:05:26.090Z,19.48
2023-05-13T17:07:55.231Z,19.61
2023-05-13T17:10:23.197Z,19.62
2023-05-13T17:12:51.089Z,19.49
2023-05-13T17:15:19.025Z,19.34
2023-05-13T17:17:46.898Z,18.96
2023-05-13T17:20:14.748Z,18.74
2023-05-13T17:22:45.435Z,18.81
2023-05-13T17:25:14.591Z,18.65
2023-05-13T17:27:42.424Z,18.45
2023-05-13T17:30:10.999Z,18.33
2023-05-13T17:32:38.760Z,18.18
2023-05-13T17:35:07.652Z,18.21
2023-05-13T17:37:35.422Z,18.30
2023-05-13T17:40:03.166Z,18.39
2023-05-13T17:42:33.584Z,18.47
2023-05-13T17:45:02.093Z,18.50
2023-05-13T17:47:30.029Z,18.49
2023-05-13T17:49:57.796Z,18.51
2023-05-13T17:52:25.666Z,18.48
2023-05-13T17:54:53.441Z,18.50
2023-05-13T17:57:21.344Z,18.48
2023-05-13T17:59:50.523Z,18.42
2023-05-13T18:02:18.370Z,18.35
2023-05-13T18:04:46.238Z,18.13
2023-05-13T18:07:14.011Z,18.25
2023-05-13T18:09:41.790Z,18.02
2023-05-13T18:12:09.688Z,17.70
2023-05-13T18:14:37.436Z,17.46
2023-05-13T18:17:06.660Z,17.27
2023-05-13T18:19:34.445Z,17.16
2023-05-13T18:22:02.229Z,16.90
2023-05-13T18:24:29.974Z,16.65
2023-05-13T18:26:57.762Z,16.49
2023-05-13T18:29:25.763Z,16.17
2023-05-13T18:31:53.682Z,15.96
2023-05-13T18:34:22.907Z,15.80
2023-05-13T18:36:52.008Z,15.55
2023-05-13T18:39:20.675Z,15.29
2023-05-13T18:41:48.438Z,15.14
2023-05-13T18:44:16.297Z,15.03
2023-05-13T18:46:45.098Z,14.94
2023-05-13T18:49:13.104Z,14.83
2023-05-13T18:51:42.371Z,14.76
2023-05-13T18:54:10.176Z,14.71
2023-05-13T18:56:38.031Z,14.62
2023-05-13T18:59:06.112Z,14.52
2023-05-13T19:01:33.997Z,14.47
2023-05-13T19:04:02.008Z,14.37
2023-05-13T19:06:29.861Z,14.32
2023-05-13T19:08:59.051Z,14.30
2023-05-13T19:11:26.770Z,14.22
2023-05-13T19:13:54.538Z,14.08
2023-05-13T19:16:22.317Z,14.03
2023-05-13T19:18:50.174Z,13.96
2023-05-13T19:21:18.096Z,13.92
2023-05-13T19:23:45.860Z,13.90
2023-05-13T19:26:15.175Z,13.86
2023-05-13T19:28:43.881Z,13.77
2023-05-13T19:31:11.750Z,13.71
2023-05-13T19:33:39.512Z,13.67
2023-05-13T19:36:07.932Z,13.68
2023-05-13T19:38:36.414Z,13.69
2023-05-13T19:41:04.718Z,13.69
2023-05-13T19:43:33.897Z,13.70
2023-05-13T19:46:01.725Z,13.65
2023-05-13T19:48:30.127Z,13.61
2023-05-13T19:50:58.519Z,13.56
2023-05-13T19:53:26.643Z,13.58
2023-05-13T19:55:54.406Z,13.61
2023-05-13T19:58:22.171Z,13.65
2023-05-13T20:00:51.272Z,13.70
2023-05-13T20:03:19.092Z,13.77
2023-05-13T20:05:48.192Z,13.73
2023-05-13T20:08:15.995Z,13.83
2023-05-13T20:10:44.013Z,13.86
2023-05-13T20:13:11.776Z,13.87
2023-05-13T20:15:39.525Z,13.88
2023-05-13T20:18:08.850Z,13.90
2023-05-13T20:20:36.750Z,13.89
2023-05-13T20:23:04.538Z,13.90
2023-05-13T20:25:32.309Z,13.90
2023-05-13T20:28:00.066Z,13.91
2023-05-13T20:30:27.866Z,13.90
2023-05-13T20:32:55.694Z,13.88
2023-05-13T20:35:24.966Z,13.86
2023-05-13T20:37:52.715Z,13.82
2023-05-13T20:40:20.594Z,13.73
2023-05-13T20:42:48.471Z,13.60
2023-05-13T20:45:16.242Z,13.55
2023-05-13T20:47:43.996Z,13.46
2023-05-13T20:50:12.783Z,13.31
2023-05-13T20:52:41.937Z,13.31
2023-05-13T20:55:11.108Z,13.26
2023-05-13T20:57:38.848Z,13.21
2023-05-13T21:00:07.870Z,13.12
2023-05-13T21:02:35.690Z,13.08
2023-05-13T21:05:03.508Z,13.00
2023-05-13T21:07:31.217Z,12.96
2023-05-13T21:10:00.345Z,12.90
2023-05-13T21:12:28.261Z,12.87
2023-05-13T21:14:56.020Z,12.82
2023-05-13T21:17:35.173Z,12.77
2023-05-13T21:20:04.502Z,12.71
2023-05-13T21:22:32.569Z,12.67
2023-05-13T21:25:02.135Z,12.67
2023-05-13T21:27:29.884Z,12.66
2023-05-13T21:29:57.794Z,12.60
2023-05-13T21:32:25.695Z,12.59
2023-05-13T21:34:53.544Z,12.57
2023-05-13T21:37:21.321Z,12.56
2023-05-13T21:39:49.110Z,12.55
2023-05-13T21:42:19.015Z,12.56
2023-05-13T21:44:46.944Z,12.55
2023-05-13T21:47:15.650Z,12.53
2023-05-13T21:49:44.295Z,12.51
2023-05-13T21:52:12.089Z,12.49
2023-05-13T21:54:40.953Z,12.46
2023-05-13T21:57:09.032Z,12.42
2023-05-13T21:59:38.099Z,12.40
2023-05-13T22:02:06.051Z,12.37
2023-05-13T22:04:33.903Z,12.35
2023-05-13T22:07:02.205Z,12.33
2023-05-13T22:09:29.941Z,12.35
2023-05-13T22:11:57.756Z,12.32
2023-05-13T22:14:25.492Z,12.30
2023-05-13T22:17:07.571Z,12.27
2023-05-13T22:19:36.847Z,12.25
2023-05-13T22:22:04.858Z,12.20
2023-05-13T22:24:32.672Z,12.17
2023-05-13T22:27:00.466Z,12.14
2023-05-13T22:29:28.312Z,12.13
2023-05-13T22:31:57.816Z,12.09
2023-05-13T22:34:26.760Z,12.07
2023-05-13T22:36:54.612Z,12.03
2023-05-13T22:39:22.395Z,12.03
2023-05-13T22:41:50.385Z,12.01
2023-05-13T22:44:18.195Z,11.97
2023-05-13T22:46:46.090Z,11.92
2023-05-13T22:49:15.394Z,11.91
2023-05-13T22:51:43.315Z,11.90
2023-05-13T22:54:11.095Z,11.87
2023-05-13T22:56:38.842Z,11.84
2023-05-13T22:59:06.623Z,11.81
2023-05-13T23:01:34.454Z,11.78
2023-05-13T23:04:02.304Z,11.73
2023-05-13T23:06:31.529Z,11.71
2023-05-13T23:08:59.341Z,11.68
2023-05-13T23:11:27.123Z,11.62
2023-05-13T23:13:55.240Z,11.55
2023-05-13T23:16:23.089Z,11.62
2023-05-13T23:18:51.004Z,11.58
2023-05-13T23:21:18.783Z,11.56
2023-05-13T23:23:50.215Z,11.53
2023-05-13T23:26:17.953Z,11.50
2023-05-13T23:28:45.735Z,11.50
2023-05-13T23:31:13.557Z,11.46
2023-05-13T23:33:41.422Z,11.42
2023-05-13T23:36:09.490Z,11.44
2023-05-13T23:38:37.255Z,11.41
2023-05-13T23:41:06.422Z,11.39
2023-05-13T23:43:34.187Z,11.35
2023-05-13T23:46:02.091Z,11.32
2023-05-13T23:48:31.748Z,11.30
2023-05-13T23:50:59.619Z,11.28
2023-05-13T23:53:27.417Z,11.27
2023-05-13T23:55:55.203Z,11.24
2023-05-13T23:58:24.305Z,11.23
